createdAt,value
2019-03-05T00:00:41.209Z,10.33
2019-03-05T00:03:10.107Z,7.63
2019-03-05T00:05:39.000Z,8.83
2019-03-05T00:08:07.837Z,7.93
2019-03-05T00:10:36.689Z,6.97
2019-03-05T00:13:05.680Z,6.33
2019-03-05T00:15:34.626Z,8.00
2019-03-05T00:18:03.473Z,7.40
2019-03-05T00:20:32.381Z,7.50
2019-03-05T00:23:01.232Z,7.77
2019-03-05T00:25:35.280Z,8.13
2019-03-05T00:28:25.430Z,8.27
2019-03-05T00:31:15.099Z,7.67
2019-03-05T00:34:04.395Z,8.13
2019-03-05T00:36:36.398Z,8.50
2019-03-05T00:39:30.961Z,8.20
2019-03-05T00:42:36.012Z,8.40
2019-03-05T00:45:13.939Z,8.00
2019-03-05T00:47:45.718Z,7.80
2019-03-05T00:50:37.494Z,8.17
2019-03-05T00:53:27.513Z,8.20
2019-03-05T00:56:19.014Z,7.97
2019-03-05T00:58:50.804Z,8.13
2019-03-05T01:01:25.582Z,8.63
2019-03-05T01:04:15.130Z,8.47
2019-03-05T01:06:44.034Z,8.63
2019-03-05T01:09:16.636Z,8.23
2019-03-05T01:11:45.478Z,7.83
2019-03-05T01:14:14.973Z,9.17
2019-03-05T01:16:43.833Z,8.93
2019-03-05T01:19:12.671Z,9.10
2019-03-05T01:21:41.647Z,7.67
2019-03-05T01:24:10.753Z,8.13
2019-03-05T01:26:39.561Z,8.77
2019-03-05T01:29:08.443Z,7.77
2019-03-05T01:31:48.169Z,8.30
2019-03-05T01:34:27.462Z,7.57
2019-03-05T01:37:00.627Z,7.57
2019-03-05T01:39:31.090Z,8.13
2019-03-05T01:41:59.921Z,7.53
2019-03-05T01:44:28.765Z,8.03
2019-03-05T01:46:57.677Z,8.53
2019-03-05T01:49:26.504Z,8.90
2019-03-05T01:51:55.370Z,7.43
2019-03-05T01:54:24.270Z,5.87
2019-03-05T01:56:53.105Z,5.10
2019-03-05T01:59:21.945Z,3.70
2019-03-05T02:01:50.838Z,2.77
2019-03-05T02:04:20.637Z,2.60
2019-03-05T02:06:49.606Z,2.50
2019-03-05T02:09:18.515Z,2.47
2019-03-05T02:11:47.551Z,1.90
2019-03-05T02:14:16.503Z,1.57
2019-03-05T02:16:45.412Z,1.60
2019-03-05T02:19:36.351Z,1.60
2019-03-05T02:22:07.626Z,1.80
2019-03-05T02:25:01.643Z,1.53
2019-03-05T02:27:39.376Z,1.67
2019-03-05T02:30:32.543Z,1.67
2019-03-05T02:33:13.179Z,1.37
2019-03-05T02:35:50.851Z,1.70
2019-03-05T02:38:34.610Z,2.20
2019-03-05T02:41:15.446Z,2.00
2019-03-05T02:44:03.760Z,1.90
2019-03-05T02:46:41.522Z,2.23
2019-03-05T02:49:16.084Z,2.13
2019-03-05T02:51:57.016Z,1.80
2019-03-05T02:54:48.090Z,1.80
2019-03-05T02:57:15.714Z,1.57
2019-03-05T02:59:44.554Z,1.60
2019-03-05T03:02:31.374Z,1.30
2019-03-05T03:05:04.562Z,1.00
2019-03-05T03:07:33.393Z,1.17
2019-03-05T03:10:17.813Z,1.30
2019-03-05T03:12:46.671Z,1.40
2019-03-05T03:15:15.698Z,1.33
2019-03-05T03:17:44.762Z,1.20
2019-03-05T03:20:15.121Z,0.93
2019-03-05T03:22:43.950Z,0.77
2019-03-05T03:25:17.500Z,0.80
2019-03-05T03:27:46.357Z,0.80
2019-03-05T03:30:17.120Z,0.93
2019-03-05T03:32:45.994Z,1.00
2019-03-05T03:35:15.907Z,1.00
2019-03-05T03:37:44.733Z,1.10
2019-03-05T03:40:16.309Z,1.40
2019-03-05T03:42:45.144Z,3.20
2019-03-05T03:45:16.275Z,3.50
2019-03-05T03:47:45.201Z,6.00
2019-03-05T03:50:14.430Z,3.80
2019-03-05T03:52:43.231Z,3.97
2019-03-05T03:55:14.175Z,4.23
2019-03-05T03:57:43.222Z,4.00
2019-03-05T04:00:20.074Z,2.40
2019-03-05T04:02:48.890Z,2.50
2019-03-05T04:05:17.740Z,3.50
2019-03-05T04:07:46.753Z,2.83
2019-03-05T04:10:16.382Z,2.37
2019-03-05T04:12:45.227Z,2.00
2019-03-05T04:15:16.118Z,3.47
2019-03-05T04:17:44.965Z,3.60
2019-03-05T04:20:17.063Z,3.67
2019-03-05T04:22:45.968Z,2.73
2019-03-05T04:25:14.833Z,3.27
2019-03-05T04:27:43.670Z,3.50
2019-03-05T04:30:14.150Z,3.00
2019-03-05T04:32:42.985Z,4.30
2019-03-05T04:35:12.829Z,5.30
2019-03-05T04:37:41.715Z,5.93
2019-03-05T04:40:12.145Z,6.83
2019-03-05T04:42:40.988Z,9.40
2019-03-05T04:45:35.031Z,10.27
2019-03-05T04:48:03.876Z,9.80
2019-03-05T04:50:34.282Z,8.43
2019-03-05T04:53:03.163Z,6.33
2019-03-05T04:55:31.986Z,8.93
2019-03-05T04:58:01.318Z,12.43
2019-03-05T05:00:30.206Z,13.27
2019-03-05T05:02:59.043Z,6.90
2019-03-05T05:05:27.870Z,5.53
2019-03-05T05:07:56.791Z,5.37
2019-03-05T05:10:25.632Z,6.63
2019-03-05T05:12:54.458Z,7.97
2019-03-05T05:15:29.108Z,9.00
2019-03-05T05:17:57.937Z,8.70
2019-03-05T05:20:26.888Z,9.13
2019-03-05T05:22:55.786Z,8.60
2019-03-05T05:25:24.724Z,7.67
2019-03-05T05:27:53.556Z,7.70
2019-03-05T05:30:33.831Z,8.20
2019-03-05T05:33:02.861Z,8.13
2019-03-05T05:35:31.695Z,7.37
2019-03-05T05:38:00.582Z,6.77
2019-03-05T05:40:34.737Z,7.10
2019-03-05T05:43:04.734Z,8.33
2019-03-05T05:45:36.824Z,9.00
2019-03-05T05:48:05.672Z,12.63
2019-03-05T05:50:34.571Z,9.43
2019-03-05T05:53:03.402Z,10.00
2019-03-05T05:55:32.248Z,10.50
2019-03-05T05:58:01.157Z,10.37
2019-03-05T06:00:30.288Z,11.50
2019-03-05T06:02:59.121Z,11.53
2019-03-05T06:05:28.007Z,16.20
2019-03-05T06:07:56.834Z,31.93
2019-03-05T06:10:26.514Z,24.70
2019-03-05T06:12:55.414Z,33.17
2019-03-05T06:15:24.269Z,36.90
2019-03-05T06:17:53.097Z,32.37
2019-03-05T06:20:21.980Z,31.53
2019-03-05T06:22:50.820Z,24.13
2019-03-05T06:25:19.660Z,17.00
2019-03-05T06:27:48.540Z,16.00
2019-03-05T06:30:19.458Z,22.07
2019-03-05T06:32:48.307Z,17.37
2019-03-05T06:35:17.898Z,17.10
2019-03-05T06:37:46.722Z,16.07
2019-03-05T06:40:18.243Z,16.47
2019-03-05T06:42:47.123Z,16.80
2019-03-05T06:45:18.037Z,13.20
2019-03-05T06:47:46.870Z,11.93
2019-03-05T06:50:17.666Z,16.20
2019-03-05T06:52:46.617Z,16.20
2019-03-05T06:55:16.514Z,14.87
2019-03-05T06:57:45.478Z,13.87
2019-03-05T07:00:26.849Z,10.47
2019-03-05T07:02:55.717Z,7.50
2019-03-05T07:06:00.781Z,8.87
2019-03-05T07:08:30.366Z,9.43
2019-03-05T07:11:17.337Z,10.57
2019-03-05T07:13:48.052Z,10.53
2019-03-05T07:16:22.411Z,9.77
2019-03-05T07:18:54.099Z,10.40
2019-03-05T07:21:50.407Z,10.20
2019-03-05T07:24:38.295Z,11.50
2019-03-05T07:27:07.227Z,13.23
2019-03-05T07:29:36.066Z,17.90
2019-03-05T07:32:05.178Z,17.53
2019-03-05T07:34:35.596Z,18.33
2019-03-05T07:37:05.933Z,25.27
2019-03-05T07:39:34.812Z,26.47
2019-03-05T07:42:03.764Z,30.67
2019-03-05T07:44:32.624Z,33.00
2019-03-05T07:47:01.503Z,28.77
2019-03-05T07:49:30.351Z,21.43
2019-03-05T07:51:59.185Z,22.30
2019-03-05T07:54:28.095Z,16.10
2019-03-05T07:56:56.934Z,15.43
2019-03-05T07:59:25.774Z,14.03
2019-03-05T08:01:54.617Z,12.77
2019-03-05T08:04:23.433Z,12.33
2019-03-05T08:06:52.276Z,13.17
2019-03-05T08:09:34.711Z,11.00
2019-03-05T08:12:12.313Z,11.60
2019-03-05T08:14:56.977Z,11.33
2019-03-05T08:17:26.109Z,15.70
2019-03-05T08:19:55.060Z,17.07
2019-03-05T08:22:23.958Z,22.03
2019-03-05T08:24:52.803Z,23.00
2019-03-05T08:27:21.603Z,25.33
2019-03-05T08:29:50.485Z,27.60
2019-03-05T08:32:19.345Z,28.97
2019-03-05T08:34:48.197Z,27.63
2019-03-05T08:37:17.093Z,28.07
2019-03-05T08:39:45.930Z,20.20
2019-03-05T08:42:14.781Z,20.60
2019-03-05T08:44:50.319Z,46.77
2019-03-05T08:47:14.170Z,39.87
2019-03-05T08:49:43.006Z,33.30
2019-03-05T08:52:12.092Z,34.40
2019-03-05T08:54:40.931Z,29.07
2019-03-05T08:57:09.723Z,27.23
2019-03-05T08:59:38.574Z,23.57
2019-03-05T09:02:07.512Z,24.40
2019-03-05T09:04:36.361Z,24.10
2019-03-05T09:07:05.254Z,23.83
2019-03-05T09:09:34.214Z,24.87
2019-03-05T09:12:03.256Z,29.10
2019-03-05T09:14:34.348Z,25.90
2019-03-05T09:17:02.694Z,40.80
2019-03-05T09:19:31.552Z,28.13
2019-03-05T09:22:00.440Z,23.33
2019-03-05T09:24:29.309Z,25.57
2019-03-05T09:26:58.147Z,21.73
2019-03-05T09:29:27.032Z,23.83
2019-03-05T09:31:55.867Z,27.40
2019-03-05T09:34:25.005Z,28.43
2019-03-05T09:36:53.938Z,27.10
2019-03-05T09:39:22.782Z,25.23
2019-03-05T09:41:51.618Z,25.87
2019-03-05T09:44:20.523Z,22.40
2019-03-05T09:46:49.350Z,13.97
2019-03-05T09:49:18.192Z,14.13
2019-03-05T09:51:47.084Z,15.20
2019-03-05T09:54:15.932Z,16.93
2019-03-05T09:56:44.768Z,21.97
2019-03-05T09:59:13.715Z,20.37
2019-03-05T10:01:42.863Z,21.07
2019-03-05T10:04:11.710Z,14.33
2019-03-05T10:06:40.583Z,14.27
2019-03-05T10:09:09.838Z,14.87
2019-03-05T10:11:38.670Z,15.00
2019-03-05T10:14:07.551Z,15.93
2019-03-05T10:16:36.394Z,18.87
2019-03-05T10:19:05.646Z,18.50
2019-03-05T10:21:45.507Z,18.30
2019-03-05T10:24:10.428Z,19.67
2019-03-05T10:26:36.289Z,20.27
2019-03-05T10:29:06.740Z,20.40
2019-03-05T10:31:35.588Z,16.90
2019-03-05T10:34:04.429Z,18.37
2019-03-05T10:36:33.350Z,16.20
2019-03-05T10:39:02.218Z,16.83
2019-03-05T10:41:31.159Z,17.63
2019-03-05T10:44:00.076Z,15.23
2019-03-05T10:46:28.911Z,14.10
2019-03-05T10:48:57.859Z,16.80
2019-03-05T10:51:26.761Z,13.60
2019-03-05T10:53:55.623Z,15.53
2019-03-05T10:56:24.468Z,16.30
2019-03-05T10:58:53.373Z,15.53
2019-03-05T11:01:22.213Z,15.53
2019-03-05T11:03:51.069Z,15.60
2019-03-05T11:06:20.025Z,17.30
2019-03-05T11:08:49.725Z,15.93
2019-03-05T11:11:18.553Z,14.90
2019-03-05T11:13:48.255Z,14.33
2019-03-05T11:16:17.209Z,15.90
2019-03-05T11:18:46.068Z,16.53
2019-03-05T11:21:14.985Z,17.93
2019-03-05T11:23:43.819Z,17.27
2019-03-05T11:26:12.666Z,17.30
2019-03-05T11:28:41.579Z,20.70
2019-03-05T11:31:10.428Z,20.30
2019-03-05T11:33:39.270Z,23.27
2019-03-05T11:36:08.252Z,19.27
2019-03-05T11:38:37.113Z,17.80
2019-03-05T11:41:06.046Z,13.37
2019-03-05T11:43:34.954Z,11.23
2019-03-05T11:46:05.013Z,14.47
2019-03-05T11:48:33.842Z,33.33
2019-03-05T11:51:02.766Z,44.10
2019-03-05T11:53:31.603Z,29.77
2019-03-05T11:56:00.440Z,25.40
2019-03-05T11:58:29.337Z,47.40
2019-03-05T12:00:59.766Z,35.47
2019-03-05T12:03:28.602Z,5.60
2019-03-05T12:05:57.485Z,3.30
2019-03-05T12:08:26.319Z,5.50
2019-03-05T12:10:55.172Z,20.73
2019-03-05T12:13:24.275Z,32.93
2019-03-05T12:15:53.133Z,35.27
2019-03-05T12:18:21.970Z,27.27
2019-03-05T12:20:50.868Z,27.90
2019-03-05T12:23:20.311Z,32.37
2019-03-05T12:25:49.155Z,31.53
2019-03-05T12:28:18.033Z,27.33
2019-03-05T12:30:46.846Z,26.37
2019-03-05T12:33:15.666Z,24.87
2019-03-05T12:35:44.580Z,22.60
2019-03-05T12:38:13.426Z,25.17
2019-03-05T12:40:42.293Z,23.90
2019-03-05T12:43:11.200Z,18.87
2019-03-05T12:45:40.001Z,21.70
2019-03-05T12:48:08.805Z,21.73
2019-03-05T12:50:38.618Z,19.77
2019-03-05T12:53:07.460Z,19.17
2019-03-05T12:55:36.310Z,17.40
2019-03-05T12:58:05.414Z,20.03
2019-03-05T13:00:35.851Z,14.60
2019-03-05T13:03:05.007Z,18.43
2019-03-05T13:05:33.890Z,20.43
2019-03-05T13:08:02.835Z,20.30
2019-03-05T13:10:37.417Z,20.33
2019-03-05T13:13:06.423Z,22.67
2019-03-05T13:15:37.935Z,22.90
2019-03-05T13:18:07.102Z,23.47
2019-03-05T13:20:35.995Z,20.77
2019-03-05T13:23:09.220Z,21.80
2019-03-05T13:25:38.110Z,23.60
2019-03-05T13:28:06.206Z,20.07
2019-03-05T13:30:35.042Z,24.07
2019-03-05T13:33:03.899Z,24.20
2019-03-05T13:35:32.775Z,25.10
2019-03-05T13:38:07.921Z,22.57
2019-03-05T13:40:38.534Z,25.83
2019-03-05T13:43:06.156Z,29.13
2019-03-05T13:45:35.225Z,25.17
2019-03-05T13:48:15.017Z,26.10
2019-03-05T13:50:52.512Z,28.90
2019-03-05T13:53:32.971Z,27.30
2019-03-05T13:56:24.065Z,30.57
2019-03-05T13:59:15.210Z,29.20
2019-03-05T14:01:44.059Z,29.03
2019-03-05T14:04:27.826Z,29.87
2019-03-05T14:07:05.618Z,30.43
2019-03-05T14:09:33.288Z,30.20
2019-03-05T14:12:02.147Z,31.27
2019-03-05T14:14:31.403Z,35.00
2019-03-05T14:17:10.764Z,41.87
2019-03-05T14:19:39.609Z,34.23
2019-03-05T14:22:08.455Z,30.97
2019-03-05T14:24:37.878Z,30.43
2019-03-05T14:27:06.736Z,37.90
2019-03-05T14:29:35.577Z,35.70
2019-03-05T14:32:04.476Z,32.63
2019-03-05T14:34:33.337Z,27.80
2019-03-05T14:37:02.198Z,33.13
2019-03-05T14:39:33.905Z,22.57
2019-03-05T14:42:03.775Z,16.27
2019-03-05T14:44:39.777Z,19.70
2019-03-05T14:47:05.117Z,17.07
2019-03-05T14:49:33.950Z,19.60
2019-03-05T14:52:02.930Z,19.73
2019-03-05T14:54:31.819Z,20.87
2019-03-05T14:57:00.683Z,21.80
2019-03-05T14:59:29.543Z,22.53
2019-03-05T15:01:58.440Z,21.10
2019-03-05T15:04:27.306Z,21.00
2019-03-05T15:06:56.131Z,23.37
2019-03-05T15:09:25.129Z,24.20
2019-03-05T15:11:54.022Z,26.97
2019-03-05T15:14:22.920Z,27.23
2019-03-05T15:16:51.909Z,21.53
2019-03-05T15:19:21.814Z,22.43
2019-03-05T15:21:50.914Z,20.33
2019-03-05T15:24:19.781Z,23.67
2019-03-05T15:26:48.644Z,23.67
2019-03-05T15:29:17.496Z,36.30
2019-03-05T15:31:46.478Z,43.23
2019-03-05T15:34:15.357Z,50.13
2019-03-05T15:36:44.206Z,51.23
2019-03-05T15:39:13.429Z,41.40
2019-03-05T15:41:45.848Z,42.03
2019-03-05T15:44:12.780Z,54.87
2019-03-05T15:46:41.670Z,48.70
2019-03-05T15:49:10.494Z,43.63
2019-03-05T15:51:39.360Z,40.77
2019-03-05T15:54:08.287Z,41.47
2019-03-05T15:56:37.128Z,40.27
2019-03-05T15:59:05.994Z,51.20
2019-03-05T16:01:34.891Z,46.37
2019-03-05T16:04:03.822Z,44.43
2019-03-05T16:06:34.062Z,47.33
2019-03-05T16:09:03.654Z,51.40
2019-03-05T16:11:34.058Z,46.43
2019-03-05T16:14:03.091Z,41.10
2019-03-05T16:16:32.209Z,36.90
2019-03-05T16:19:01.051Z,42.40
2019-03-05T16:21:29.887Z,41.53
2019-03-05T16:24:01.636Z,43.57
2019-03-05T16:26:29.302Z,45.33
2019-03-05T16:28:58.153Z,45.93
2019-03-05T16:31:28.952Z,94.27
2019-03-05T16:33:59.373Z,92.87
2019-03-05T16:36:30.565Z,96.13
2019-03-05T16:39:01.208Z,101.53
2019-03-05T16:41:46.582Z,73.83
2019-03-05T16:44:28.794Z,72.07
2019-03-05T16:47:15.779Z,83.13
2019-03-05T16:49:46.246Z,85.03
2019-03-05T16:52:22.455Z,96.03
2019-03-05T16:54:55.847Z,91.63
2019-03-05T16:57:42.713Z,94.80
2019-03-05T17:00:15.480Z,112.53
2019-03-05T17:02:54.938Z,126.50
2019-03-05T17:05:42.980Z,119.33
2019-03-05T17:08:19.428Z,117.03
2019-03-05T17:11:08.624Z,141.10
2019-03-05T17:13:37.468Z,223.47
2019-03-05T17:16:06.335Z,322.07
2019-03-05T17:18:35.236Z,274.77
2019-03-05T17:21:04.199Z,232.80
2019-03-05T17:23:33.043Z,197.57
2019-03-05T17:26:01.935Z,181.33
2019-03-05T17:28:30.798Z,174.53
2019-03-05T17:30:59.966Z,219.30
2019-03-05T17:33:29.995Z,169.43
2019-03-05T17:35:58.851Z,163.13
2019-03-05T17:38:27.695Z,119.43
2019-03-05T17:40:56.589Z,148.17
2019-03-05T17:43:25.656Z,206.73
2019-03-05T17:45:54.512Z,233.63
2019-03-05T17:48:23.426Z,261.33
2019-03-05T17:50:52.281Z,252.37
2019-03-05T17:53:21.137Z,204.13
2019-03-05T17:55:50.064Z,144.53
2019-03-05T17:58:18.908Z,137.10
2019-03-05T18:00:49.373Z,127.33
2019-03-05T18:03:18.271Z,112.07
2019-03-05T18:05:47.144Z,131.37
2019-03-05T18:08:15.980Z,136.03
2019-03-05T18:10:44.871Z,140.27
2019-03-05T18:13:13.729Z,149.53
2019-03-05T18:15:42.574Z,162.90
2019-03-05T18:18:11.504Z,169.33
2019-03-05T18:20:40.331Z,151.47
2019-03-05T18:23:09.218Z,152.17
2019-03-05T18:25:38.116Z,138.40
2019-03-05T18:28:06.971Z,149.40
2019-03-05T18:30:35.814Z,145.80
2019-03-05T18:33:04.716Z,137.47
2019-03-05T18:35:34.440Z,139.00
2019-03-05T18:38:03.302Z,145.67
2019-03-05T18:40:32.210Z,138.97
2019-03-05T18:43:01.191Z,137.40
2019-03-05T18:45:37.985Z,137.67
2019-03-05T18:48:06.852Z,138.80
2019-03-05T18:50:35.716Z,189.33
2019-03-05T18:53:05.916Z,173.40
2019-03-05T18:55:34.788Z,147.13
2019-03-05T18:58:03.625Z,183.10
2019-03-05T19:00:36.763Z,214.37
2019-03-05T19:03:14.065Z,222.07
2019-03-05T19:05:42.975Z,186.67
2019-03-05T19:08:11.855Z,202.27
2019-03-05T19:10:40.723Z,149.83
2019-03-05T19:13:09.642Z,127.60
2019-03-05T19:15:38.492Z,126.50
2019-03-05T19:18:07.447Z,128.20
2019-03-05T19:20:36.450Z,127.67
2019-03-05T19:23:05.316Z,141.10
2019-03-05T19:25:40.075Z,137.83
2019-03-05T19:28:11.348Z,139.80
2019-03-05T19:30:45.480Z,134.57
2019-03-05T19:33:14.342Z,140.20
2019-03-05T19:35:43.192Z,139.90
2019-03-05T19:38:12.134Z,126.27
2019-03-05T19:40:45.659Z,133.33
2019-03-05T19:43:14.518Z,129.73
2019-03-05T19:45:43.411Z,136.30
2019-03-05T19:48:12.267Z,133.70
2019-03-05T19:50:41.407Z,141.30
2019-03-05T19:53:10.305Z,167.77
2019-03-05T19:55:39.147Z,168.00
2019-03-05T19:58:12.386Z,182.90
2019-03-05T20:01:04.672Z,156.97
2019-03-05T20:03:33.506Z,154.13
2019-03-05T20:06:02.362Z,141.67
2019-03-05T20:08:39.504Z,150.33
2019-03-05T20:11:01.768Z,160.90
2019-03-05T20:13:30.612Z,206.23
2019-03-05T20:15:59.515Z,211.67
2019-03-05T20:18:28.366Z,198.33
2019-03-05T20:20:57.213Z,187.83
2019-03-05T20:23:26.304Z,175.73
2019-03-05T20:25:55.174Z,221.60
2019-03-05T20:28:24.050Z,238.03
2019-03-05T20:30:53.080Z,177.17
2019-03-05T20:33:21.924Z,184.37
2019-03-05T20:35:51.093Z,187.67
2019-03-05T20:38:20.095Z,177.00
2019-03-05T20:40:48.936Z,192.13
2019-03-05T20:43:17.793Z,175.27
2019-03-05T20:45:52.050Z,152.83
2019-03-05T20:48:20.887Z,179.03
2019-03-05T20:50:49.744Z,172.23
2019-03-05T20:53:18.635Z,168.20
2019-03-05T20:55:47.497Z,150.10
2019-03-05T20:58:16.354Z,145.57
2019-03-05T21:00:45.562Z,136.07
2019-03-05T21:03:14.426Z,116.80
2019-03-05T21:05:45.143Z,120.47
2019-03-05T21:08:14.141Z,144.63
2019-03-05T21:10:42.992Z,258.10
2019-03-05T21:13:12.030Z,199.83
2019-03-05T21:15:40.930Z,216.40
2019-03-05T21:18:11.773Z,179.23
2019-03-05T21:20:40.658Z,183.93
2019-03-05T21:23:09.561Z,182.30
2019-03-05T21:25:38.418Z,184.10
2019-03-05T21:28:07.259Z,228.10
2019-03-05T21:30:36.391Z,178.07
2019-03-05T21:33:05.242Z,183.73
2019-03-05T21:35:34.101Z,149.40
2019-03-05T21:38:02.997Z,148.43
2019-03-05T21:40:33.067Z,155.33
2019-03-05T21:43:02.025Z,145.53
2019-03-05T21:45:39.270Z,165.70
2019-03-05T21:48:08.122Z,144.67
2019-03-05T21:50:36.984Z,145.10
2019-03-05T21:53:06.207Z,136.77
2019-03-05T21:55:35.062Z,147.07
2019-03-05T21:58:04.209Z,153.27
2019-03-05T22:00:34.297Z,151.70
2019-03-05T22:03:03.345Z,147.40
2019-03-05T22:05:32.196Z,150.57
2019-03-05T22:08:01.128Z,155.33
2019-03-05T22:10:29.981Z,155.63
2019-03-05T22:12:58.829Z,137.10
2019-03-05T22:15:35.429Z,115.00
2019-03-05T22:18:04.303Z,130.27
2019-03-05T22:20:33.156Z,167.77
2019-03-05T22:23:02.190Z,186.27
2019-03-05T22:25:31.061Z,123.87
2019-03-05T22:27:59.913Z,116.70
2019-03-05T22:30:36.695Z,123.17
2019-03-05T22:33:05.683Z,128.43
2019-03-05T22:35:34.492Z,123.57
2019-03-05T22:38:03.382Z,118.10
2019-03-05T22:40:32.353Z,116.43
2019-03-05T22:43:01.196Z,111.30
2019-03-05T22:45:36.377Z,117.33
2019-03-05T22:48:05.232Z,128.23
2019-03-05T22:50:34.078Z,135.20
2019-03-05T22:53:03.249Z,115.20
2019-03-05T22:55:32.209Z,103.03
2019-03-05T22:58:01.081Z,92.17
2019-03-05T23:01:01.440Z,159.43
2019-03-05T23:03:31.587Z,196.27
2019-03-05T23:06:03.127Z,195.40
2019-03-05T23:08:32.060Z,110.20
2019-03-05T23:11:01.529Z,100.00
2019-03-05T23:13:30.477Z,94.13
2019-03-05T23:15:59.776Z,91.03
2019-03-05T23:18:28.730Z,95.57
2019-03-05T23:20:57.692Z,93.53
2019-03-05T23:23:26.594Z,96.27
2019-03-05T23:25:55.467Z,93.03
2019-03-05T23:28:24.604Z,86.33
2019-03-05T23:30:53.518Z,123.07
2019-03-05T23:33:22.360Z,141.60
2019-03-05T23:35:51.312Z,151.43
2019-03-05T23:38:20.223Z,224.90
2019-03-05T23:40:49.495Z,170.90
2019-03-05T23:43:18.345Z,219.80
2019-03-05T23:45:47.454Z,205.87
2019-03-05T23:48:16.304Z,167.97
2019-03-05T23:50:45.149Z,85.07
2019-03-05T23:53:14.373Z,95.53
2019-03-05T23:55:43.216Z,103.03
2019-03-05T23:58:12.076Z,108.57
